首页
METAR-TAF:

METAR-TAF

机场 :

埃里克·尼尔森怀特霍斯国际机场

白馬, 育康省, 加拿大

纬度: 60-43N, 经度: 135-04W, 海拔: 703米

当前天气观测

该预报发布于1小时和10分钟前的13:00 UTC
静风
温度 -9°C
湿度 73%
气压 1004 hPa
能見度: 24.1公里
少量云层高于5300英尺
阴天层高于7100英尺

METAR: CYXY 231300Z 00000KT 15SM FEW053 OVC071 M09/M13 A2964 RMK SC2AC6 SLP084

时间: 06:10 (14:10 UTC)

预报

该预报发布于2小时和32分钟前的11:38 UTC
预报有效从23日的 12点(UTC)到 23日的 24点(UTC)
风速8节,风向
能見度: 10公里
散云层高于2000英尺
阴天层高于6000英尺
短暂存在
从 23日的 12点(UTC)到 23日的 24点(UTC)
能見度: 3.2公里
多云层高于2000英尺
多云层高于6000英尺
小雪

TAF: CYXY 231138Z 2312/2324 18008KT P6SM SCT020 OVC060 TEMPO 2312/2324 2SM -SN BKN020 BKN060 RMK NXT FCST BY 231800Z

超过4000个机场的气象观测和天气预报(METAR&TAF报告)。

可查询的气象台以黄色和红色小点在地图上表示。

将鼠标移到小点上方,可查看气象台名称。

然后点击查看天气观测和预报。

如需切换地图:点击带黑十字的绿色按钮放大地图;点击带横线的绿色按钮缩小地图;或者点击绿色箭头查看邻近地区的地图。


METAR-TAF: